»·PEaware :: GTH101 KMRY-KBUR

GTH101 :: KMRY-KBUR

FLIGHT INFORMATION

Flight Status: Arrived
Operator: Unknown
More flights by this operator :: More flights under this callsign
Pilot: Peter M. (9586)
Aircraft: BEECH AIRCRAFT SUPER KING AIR COMMUTER
(BE20)
More flights by this aircraft type
Origin: KMRY Monterey Peninsula
United States
Destination: KBUR Bob Hope-Burbank
United States
More flights between these airports :: More routes between these airports
Route: +MRY5 SNS V248 PRB FLW FERN7
File this flight plan on PilotEdge
Remarks: RMK / SIMBRIEF
Altitude:
(Current/Filed)
27,000ft
Speed:
(Current/Filed)
315kts
Departed: 19-Nov-20 09:16 AM
Arrived: 19-Nov-20 10:18 AM
Distance/Time
Traveled:
223nm/1:01
Distance/Time
To Go:
Arrived

Flight Plot

Page will automatically refresh every two minutes.

Flight plan parsing failed; only flown route is shown


Map Options




Map Legend


Flown Route
Filed Route
Departure Airport
Arrival Airport
Navaid (VOR, NDB)
Fix

Horizontal Profiles

Position Reports

Time Latitude Longitude Heading Altitude Ground
Speed
19-Nov-20 08:57 36.588831 -121.853885 244 209ft 0kts
19-Nov-20 08:58 36.588830 -121.853889 244 209ft 0kts
19-Nov-20 08:59 36.588829 -121.853892 244 209ft 0kts
19-Nov-20 09:00 36.588827 -121.853896 244 209ft 0kts
19-Nov-20 09:01 36.588826 -121.853899 244 209ft 0kts
19-Nov-20 09:02 36.588825 -121.853902 244 209ft 0kts
19-Nov-20 09:03 36.588824 -121.853906 244 209ft 0kts
19-Nov-20 09:04 36.588822 -121.853909 244 209ft 0kts
19-Nov-20 09:05 36.588821 -121.853913 244 209ft 0kts
19-Nov-20 09:06 36.588820 -121.853916 244 209ft 0kts
19-Nov-20 09:07 36.588818 -121.853919 244 209ft 0kts
19-Nov-20 09:08 36.588817 -121.853923 244 209ft 0kts
19-Nov-20 09:09 36.588816 -121.853926 244 209ft 0kts
19-Nov-20 09:10 36.588810 -121.853942 246 209ft 0kts
19-Nov-20 09:11 36.587589 -121.848851 115 209ft 32kts
19-Nov-20 09:12 36.583755 -121.837684 112 209ft 36kts
19-Nov-20 09:13 36.582981 -121.833661 47 209ft 0kts
19-Nov-20 09:14 36.582983 -121.833658 46 209ft 0kts
19-Nov-20 09:16 36.584287 -121.836322 293 209ft 70kts
19-Nov-20 09:17 36.601749 -121.882249 300 1620ft 189kts
19-Nov-20 09:18 36.637049 -121.931121 327 4085ft 177kts
19-Nov-20 09:19 36.681919 -121.921064 46 6696ft 192kts
19-Nov-20 09:20 36.710241 -121.859451 75 9034ft 212kts
19-Nov-20 09:21 36.712374 -121.788716 115 11170ft 200kts
19-Nov-20 09:22 36.690391 -121.724987 109 13062ft 210kts
19-Nov-20 09:23 36.674340 -121.653096 105 15229ft 214kts
19-Nov-20 09:24 36.650764 -121.586395 131 17209ft 208kts
19-Nov-20 09:25 36.613190 -121.530576 135 19078ft 216kts
19-Nov-20 09:26 36.572117 -121.472054 135 21238ft 223kts
19-Nov-20 09:27 36.525543 -121.406560 135 21519ft 262kts
19-Nov-20 09:28 36.478211 -121.339575 135 22911ft 250kts
19-Nov-20 09:29 36.434845 -121.278286 135 24346ft 237kts
19-Nov-20 09:29 36.397889 -121.226249 135 25600ft 244kts
19-Nov-20 09:31 36.344848 -121.151707 135 27352ft 245kts
19-Nov-20 09:32 36.299502 -121.088116 135 28794ft 248kts
19-Nov-20 09:33 36.249988 -121.019185 135 29005ft 287kts
19-Nov-20 09:34 36.196060 -120.944107 134 28998ft 294kts
19-Nov-20 09:35 36.141458 -120.868113 135 28997ft 296kts
19-Nov-20 09:36 36.083390 -120.796192 153 28998ft 291kts
19-Nov-20 09:36 36.024001 -120.766066 167 28998ft 286kts
19-Nov-20 09:38 35.935464 -120.731936 167 28997ft 286kts
19-Nov-20 09:38 35.872381 -120.706809 166 28997ft 284kts
19-Nov-20 09:40 35.787444 -120.672716 166 28997ft 280kts
19-Nov-20 09:40 35.725636 -120.648056 166 28997ft 280kts
19-Nov-20 09:41 35.652106 -120.615667 156 28998ft 285kts
19-Nov-20 09:42 35.584804 -120.563309 151 28997ft 286kts
19-Nov-20 09:43 35.517560 -120.511290 152 28901ft 285kts
19-Nov-20 09:44 35.448304 -120.459675 153 27948ft 296kts
19-Nov-20 09:45 35.377145 -120.406799 152 26951ft 300kts
19-Nov-20 09:46 35.305353 -120.353544 153 25950ft 300kts
19-Nov-20 09:47 35.238737 -120.293293 124 24952ft 307kts
19-Nov-20 09:48 35.203493 -120.197475 113 24075ft 304kts
19-Nov-20 09:49 35.173498 -120.104559 113 23994ft 284kts
19-Nov-20 09:50 35.145157 -120.015939 113 23996ft 277kts
19-Nov-20 09:51 35.117289 -119.928530 113 23997ft 275kts
19-Nov-20 09:52 35.089177 -119.840377 113 23606ft 289kts
19-Nov-20 09:53 35.045562 -119.755613 128 22622ft 300kts
19-Nov-20 09:54 34.997026 -119.674881 129 21653ft 305kts
19-Nov-20 09:55 34.933670 -119.618041 189 20649ft 281kts
19-Nov-20 09:56 34.860338 -119.607944 136 19659ft 299kts
19-Nov-20 09:57 34.822266 -119.516881 121 18673ft 302kts
19-Nov-20 09:58 34.774886 -119.432864 128 17672ft 299kts
19-Nov-20 09:59 34.725816 -119.351445 129 16673ft 297kts
19-Nov-20 10:00 34.673011 -119.273753 134 15354ft 301kts
19-Nov-20 10:01 34.618261 -119.199830 135 13692ft 304kts
19-Nov-20 10:02 34.562302 -119.131351 142 11271ft 286kts
19-Nov-20 10:03 34.501042 -119.069545 144 9040ft 277kts
19-Nov-20 10:04 34.446470 -119.016747 148 8994ft 233kts
19-Nov-20 10:05 34.396574 -118.974753 150 8960ft 223kts
19-Nov-20 10:06 34.353764 -118.913364 127 7971ft 250kts
19-Nov-20 10:07 34.313112 -118.843486 127 6727ft 260kts
19-Nov-20 10:08 34.270889 -118.773019 127 5248ft 262kts
19-Nov-20 10:09 34.229165 -118.706954 127 4067ft 249kts
19-Nov-20 10:10 34.200197 -118.637873 92 3320ft 232kts
19-Nov-20 10:11 34.198013 -118.568371 88 2966ft 191kts
19-Nov-20 10:12 34.199183 -118.504413 88 2529ft 184kts
19-Nov-20 10:13 34.197684 -118.452322 91 2567ft 107kts
19-Nov-20 10:14 34.197449 -118.416313 87 1779ft 104kts
19-Nov-20 10:15 34.197913 -118.381818 89 1040ft 97kts
19-Nov-20 10:16 34.197910 -118.353300 95 725ft 56kts
19-Nov-20 10:17 34.198635 -118.350565 286 725ft 0kts

Navigation Log

Ident Type
Flight plan parsing failed, navigation log unavailable